Time;durP1;ratioP1;P1;durP2;ratioP2;P2;SDS_P1;SDS_P2;PMS_P1;PMS_P2;Temp;Humidity;BMP_temperature;BMP_pressure;BME280_temperature;BME280_humidity;BME280_pressure;Samples;Min_cycle;Max_cycle;Signal;HPM_P1;HPM_P2
2022/04/09 00:00:33;;;;;;;2.40;1.60;;;7.60;99.90;;;;;;5017801;28;20482;-81
2022/04/09 00:02:59;;;;;;;2.72;1.60;;;7.60;99.90;;;;;;5017729;28;20137;-81
2022/04/09 00:05:26;;;;;;;3.17;2.10;;;7.60;99.90;;;;;;5015784;28;20090;-81
2022/04/09 00:07:52;;;;;;;3.47;2.25;;;7.60;99.90;;;;;;5016890;28;20026;-81
2022/04/09 00:10:18;;;;;;;3.00;1.92;;;7.60;99.90;;;;;;5017122;28;20475;-81
2022/04/09 00:12:47;;;;;;;4.55;2.20;;;7.60;99.90;;;;;;5017495;28;20072;-81
2022/04/09 00:15:14;;;;;;;3.53;2.40;;;7.50;99.90;;;;;;5017368;28;20014;-81
2022/04/09 00:17:42;;;;;;;4.50;3.10;;;7.50;99.90;;;;;;5032286;28;20033;-80
2022/04/09 00:20:09;;;;;;;4.45;3.15;;;7.50;99.90;;;;;;5017185;28;20482;-81
2022/04/09 00:22:38;;;;;;;4.72;3.35;;;7.50;99.90;;;;;;5016726;28;20032;-80
2022/04/09 00:25:13;;;;;;;6.65;4.50;;;7.50;99.90;;;;;;5015723;28;20061;-81
2022/04/09 00:27:39;;;;;;;6.40;4.68;;;7.50;99.90;;;;;;5017089;28;20025;-81
2022/04/09 00:30:07;;;;;;;7.53;5.13;;;7.40;99.90;;;;;;5016628;28;20026;-81
2022/04/09 00:32:33;;;;;;;8.25;5.38;;;7.40;99.90;;;;;;5032088;28;20029;-81
2022/04/09 00:34:58;;;;;;;6.40;4.82;;;7.40;99.90;;;;;;5016758;28;20030;-81
2022/04/09 00:37:24;;;;;;;7.25;4.95;;;7.30;99.90;;;;;;5017196;28;20075;-81
2022/04/09 00:39:50;;;;;;;7.85;4.78;;;7.30;99.90;;;;;;5031837;28;20040;-81
2022/04/09 00:42:18;;;;;;;6.53;4.70;;;7.40;99.90;;;;;;5016735;28;20022;-81
2022/04/09 00:44:43;;;;;;;7.57;4.90;;;7.40;99.90;;;;;;5016212;28;20026;-81
2022/04/09 00:47:10;;;;;;;18.15;7.63;;;7.40;99.90;;;;;;5016336;28;20041;-81
2022/04/09 00:49:37;;;;;;;11.30;5.85;;;7.30;99.90;;;;;;5015015;28;20040;-81
2022/04/09 00:52:04;;;;;;;16.98;8.68;;;7.30;99.90;;;;;;5015096;28;20112;-81
2022/04/09 00:54:37;;;;;;;16.05;7.80;;;7.30;99.90;;;;;;5016111;28;20029;-81
2022/04/09 00:57:07;;;;;;;13.23;7.30;;;7.30;99.90;;;;;;5015072;28;20026;-80
2022/04/09 00:59:38;;;;;;;11.20;5.93;;;7.30;99.90;;;;;;5016300;28;20034;-81
2022/04/09 01:02:04;;;;;;;8.43;4.95;;;7.30;99.90;;;;;;5016226;28;20069;-81
2022/04/09 01:04:31;;;;;;;7.78;4.75;;;7.30;99.90;;;;;;5016176;28;20033;-81
2022/04/09 01:06:59;;;;;;;6.78;4.43;;;7.30;99.90;;;;;;5016157;28;20036;-81
2022/04/09 01:09:25;;;;;;;6.22;4.18;;;7.30;99.90;;;;;;5014643;28;20022;-81
2022/04/09 01:11:52;;;;;;;7.60;4.07;;;7.30;99.90;;;;;;5014773;28;20532;-81
2022/04/09 01:14:18;;;;;;;8.55;4.78;;;7.40;99.90;;;;;;5015687;28;20033;-81
2022/04/09 01:16:44;;;;;;;5.20;3.08;;;7.30;99.90;;;;;;5015682;28;20077;-81
2022/04/09 01:19:10;;;;;;;3.03;2.05;;;7.30;99.90;;;;;;5015491;28;20441;-80
2022/04/09 01:21:38;;;;;;;3.42;2.10;;;7.30;99.90;;;;;;5015548;28;20057;-81
2022/04/09 01:24:04;;;;;;;4.00;1.80;;;7.30;99.90;;;;;;5030740;28;20037;-81
2022/04/09 01:26:30;;;;;;;2.50;1.50;;;7.30;99.90;;;;;;5015313;28;20029;-81
2022/04/09 01:28:56;;;;;;;3.75;1.88;;;7.30;99.90;;;;;;5015368;28;20022;-81
2022/04/09 01:31:22;;;;;;;3.20;1.75;;;7.30;99.90;;;;;;5013684;28;20030;-80
2022/04/09 01:33:47;;;;;;;3.22;1.98;;;7.30;99.90;;;;;;5015650;28;20026;-81
2022/04/09 01:36:14;;;;;;;3.22;2.25;;;7.30;99.90;;;;;;5013901;28;20033;-81
2022/04/09 01:38:40;;;;;;;3.70;2.40;;;7.30;99.90;;;;;;5015315;28;20053;-81
2022/04/09 01:41:06;;;;;;;5.10;2.33;;;7.40;99.90;;;;;;5013661;28;20076;-80
2022/04/09 01:43:32;;;;;;;3.30;2.22;;;7.30;99.90;;;;;;5015187;28;20054;-81
2022/04/09 01:45:58;;;;;;;3.67;2.20;;;7.30;99.90;;;;;;5014897;28;20042;-80
2022/04/09 01:48:23;;;;;;;2.50;1.58;;;7.40;99.90;;;;;;5014795;28;20104;-80
2022/04/09 01:50:49;;;;;;;2.42;1.67;;;7.30;99.90;;;;;;5015828;28;20076;-80
2022/04/09 01:53:15;;;;;;;2.97;2.05;;;7.40;99.90;;;;;;5014811;28;20109;-80
2022/04/09 01:55:41;;;;;;;2.83;1.88;;;7.40;99.90;;;;;;5014876;28;20558;-81
2022/04/09 01:58:06;;;;;;;4.05;2.50;;;7.40;99.90;;;;;;5014536;28;20022;-80
2022/04/09 02:00:32;;;;;;;3.50;2.00;;;7.30;99.90;;;;;;5015296;28;20033;-81
2022/04/09 02:02:58;;;;;;;3.45;2.47;;;7.30;99.90;;;;;;5030303;28;20438;-80
2022/04/09 02:05:24;;;;;;;3.15;2.10;;;7.30;99.90;;;;;;5014698;28;20030;-81
2022/04/09 02:07:51;;;;;;;4.25;2.80;;;7.20;99.90;;;;;;5013826;28;20026;-80
2022/04/09 02:10:18;;;;;;;4.30;2.78;;;7.10;99.90;;;;;;5014294;28;20521;-81
2022/04/09 02:12:44;;;;;;;8.07;4.30;;;7.10;99.90;;;;;;5014325;28;20026;-81
2022/04/09 02:15:12;;;;;;;7.80;5.15;;;7.10;99.90;;;;;;5014775;28;20097;-81
2022/04/09 02:17:39;;;;;;;6.90;4.68;;;7.00;99.90;;;;;;5014479;28;20038;-81
2022/04/09 02:20:07;;;;;;;10.02;5.32;;;7.00;99.90;;;;;;5014079;28;20026;-81
2022/04/09 02:22:37;;;;;;;8.38;5.32;;;7.00;99.90;;;;;;5029893;28;20045;-81
2022/04/09 02:25:08;;;;;;;7.57;4.50;;;6.90;99.90;;;;;;5014533;28;20080;-81
2022/04/09 02:27:34;;;;;;;6.40;4.68;;;6.90;99.90;;;;;;5014190;28;20112;-80
2022/04/09 02:30:01;;;;;;;8.07;5.07;;;7.00;99.90;;;;;;5013935;28;20099;-80
2022/04/09 02:32:26;;;;;;;7.90;5.00;;;7.00;99.90;;;;;;5014032;28;20076;-80
2022/04/09 02:34:53;;;;;;;11.95;7.22;;;7.10;99.90;;;;;;5014214;28;20022;-81
2022/04/09 02:37:20;;;;;;;13.15;7.43;;;7.10;99.90;;;;;;5013930;28;20049;-81
2022/04/09 02:39:46;;;;;;;9.50;6.75;;;7.10;99.90;;;;;;5013377;28;20040;-80
2022/04/09 02:42:14;;;;;;;9.05;6.07;;;7.20;99.90;;;;;;5013918;28;20394;-80
2022/04/09 02:44:41;;;;;;;8.45;5.68;;;7.20;99.90;;;;;;5013906;28;20100;-81
2022/04/09 02:47:07;;;;;;;9.05;6.03;;;7.20;99.90;;;;;;5012695;28;20482;-81
2022/04/09 02:49:33;;;;;;;9.38;5.57;;;7.20;99.90;;;;;;5014876;28;20056;-81
2022/04/09 02:51:58;;;;;;;9.02;5.55;;;7.30;99.90;;;;;;5014696;28;20061;-81
2022/04/09 02:54:24;;;;;;;8.93;6.03;;;7.30;99.90;;;;;;5015664;28;20482;-80
2022/04/09 02:56:50;;;;;;;8.57;6.15;;;7.30;99.90;;;;;;5012747;28;20047;-81
2022/04/09 02:59:16;;;;;;;11.25;7.50;;;7.30;99.90;;;;;;5012573;28;20457;-81
2022/04/09 03:01:46;;;;;;;9.30;6.45;;;7.20;99.90;;;;;;5013956;28;20030;-81
2022/04/09 03:04:12;;;;;;;8.70;5.82;;;7.20;99.90;;;;;;5013442;28;20065;-80
2022/04/09 03:06:38;;;;;;;9.23;6.00;;;7.20;99.90;;;;;;5013573;28;20525;-81
2022/04/09 03:09:04;;;;;;;9.02;5.65;;;7.10;99.90;;;;;;5013721;28;20030;-81
2022/04/09 03:11:30;;;;;;;11.20;6.97;;;7.20;99.90;;;;;;5013705;28;20096;-81
2022/04/09 03:13:56;;;;;;;11.23;7.13;;;7.20;99.90;;;;;;5013732;28;20022;-81
2022/04/09 03:16:21;;;;;;;8.95;6.35;;;7.10;99.90;;;;;;5013964;28;20032;-81
2022/04/09 03:18:48;;;;;;;9.90;7.03;;;7.10;99.90;;;;;;5028881;28;20026;-81
2022/04/09 03:21:14;;;;;;;11.02;6.85;;;7.10;99.90;;;;;;5012815;28;20095;-81
2022/04/09 03:23:39;;;;;;;10.07;6.75;;;7.10;99.90;;;;;;5012461;28;20479;-81
2022/04/09 03:26:05;;;;;;;12.35;7.72;;;7.20;99.90;;;;;;5013430;28;20037;-82
2022/04/09 03:28:31;;;;;;;10.88;7.40;;;7.20;99.90;;;;;;5013405;28;20053;-81
2022/04/09 03:30:57;;;;;;;8.80;6.18;;;7.20;99.90;;;;;;5013698;28;20022;-82
2022/04/09 03:33:23;;;;;;;4.97;2.88;;;7.20;99.90;;;;;;5013361;28;20092;-81
2022/04/09 03:35:49;;;;;;;6.57;3.60;;;7.20;99.90;;;;;;5012693;28;20026;-81
2022/04/09 03:38:15;;;;;;;4.90;1.25;;;7.20;99.90;;;;;;5012815;28;20037;-81
2022/04/09 03:40:42;;;;;;;6.00;3.53;;;7.20;99.90;;;;;;5014483;28;20108;-81
2022/04/09 03:43:08;;;;;;;1.60;0.82;;;7.20;99.90;;;;;;5015406;28;20026;-81
2022/04/09 03:45:34;;;;;;;0.57;0.40;;;7.20;99.90;;;;;;5015968;28;20057;-81
2022/04/09 03:48:00;;;;;;;0.17;0.10;;;7.20;99.90;;;;;;5031001;28;20034;-81
2022/04/09 03:50:26;;;;;;;0.70;0.15;;;7.20;99.90;;;;;;5014148;28;20030;-81
2022/04/09 03:52:52;;;;;;;2.70;0.50;;;7.10;99.90;;;;;;5013915;28;20482;-82
2022/04/09 03:55:19;;;;;;;0.10;0.10;;;6.90;99.90;;;;;;5029882;28;20033;-81
2022/04/09 03:57:45;;;;;;;0.30;0.20;;;6.90;99.90;;;;;;5015401;28;20046;-81
2022/04/09 04:00:11;;;;;;;0.10;0.10;;;6.80;99.90;;;;;;5014536;28;20468;-81
2022/04/09 04:02:37;;;;;;;0.25;0.25;;;6.80;99.90;;;;;;5013895;28;20379;-81
2022/04/09 04:05:03;;;;;;;1.75;0.20;;;6.70;99.90;;;;;;5014752;28;20018;-81
2022/04/09 04:07:33;;;;;;;0.10;0.10;;;6.50;99.90;;;;;;5013882;28;20026;-81
2022/04/09 04:10:09;;;;;;;0.10;0.10;;;6.40;99.90;;;;;;5029454;28;20030;-81
2022/04/09 04:12:34;;;;;;;0.40;0.20;;;6.40;99.90;;;;;;5013849;28;20117;-81
2022/04/09 04:15:00;;;;;;;0.13;0.13;;;6.30;99.90;;;;;;5011819;28;20057;-81
2022/04/09 04:17:26;;;;;;;0.55;0.20;;;6.20;99.90;;;;;;5028586;28;20123;-81
2022/04/09 04:19:51;;;;;;;0.43;0.10;;;6.10;99.90;;;;;;5013475;28;20068;-81
2022/04/09 04:22:18;;;;;;;0.47;0.20;;;6.00;99.90;;;;;;5028952;28;20066;-81
2022/04/09 04:24:44;;;;;;;0.55;0.20;;;5.90;99.90;;;;;;5013601;28;20026;-81
2022/04/09 04:27:09;;;;;;;0.15;0.10;;;5.80;99.90;;;;;;5013094;28;20034;-80
2022/04/09 04:29:35;;;;;;;0.10;0.10;;;5.80;99.90;;;;;;5013123;28;20077;-80
2022/04/09 04:32:01;;;;;;;3.35;0.70;;;5.70;99.90;;;;;;5014983;28;20096;-80
2022/04/09 04:34:27;;;;;;;2.92;0.10;;;5.50;99.90;;;;;;5016869;28;20025;-79
2022/04/09 04:36:52;;;;;;;0.55;0.20;;;5.30;99.90;;;;;;5016362;28;20092;-79
2022/04/09 04:39:18;;;;;;;0.10;0.10;;;5.20;99.90;;;;;;5031682;28;20109;-80
2022/04/09 04:41:43;;;;;;;0.20;0.20;;;5.00;99.90;;;;;;5016805;28;20478;-80
2022/04/09 04:44:10;;;;;;;0.20;0.20;;;4.90;99.90;;;;;;5016671;28;20064;-80
2022/04/09 04:46:38;;;;;;;0.10;0.10;;;4.70;99.90;;;;;;5016647;28;20447;-80
2022/04/09 04:49:03;;;;;;;0.75;0.40;;;4.70;99.90;;;;;;5016067;28;20057;-80
2022/04/09 04:51:29;;;;;;;0.20;0.20;;;4.50;99.90;;;;;;5031668;28;20041;-80
2022/04/09 04:53:55;;;;;;;0.10;0.10;;;4.40;99.90;;;;;;5016883;28;20100;-78
2022/04/09 04:56:23;;;;;;;0.20;0.20;;;4.30;99.90;;;;;;5016081;28;20026;-78
2022/04/09 04:58:50;;;;;;;0.77;0.50;;;4.20;99.90;;;;;;5016941;28;20049;-78
2022/04/09 05:01:15;;;;;;;0.20;0.20;;;4.00;99.90;;;;;;5016918;28;20037;-77
2022/04/09 05:03:41;;;;;;;0.17;0.17;;;4.00;99.90;;;;;;5015762;28;20026;-77
2022/04/09 05:06:07;;;;;;;0.20;0.20;;;3.90;99.90;;;;;;5016199;28;20026;-78
2022/04/09 05:08:33;;;;;;;0.52;0.30;;;3.90;99.90;;;;;;5015963;28;20360;-78
2022/04/09 05:10:59;;;;;;;0.20;0.20;;;3.80;99.90;;;;;;5016877;28;20104;-77
2022/04/09 05:13:24;;;;;;;0.47;0.30;;;3.80;99.90;;;;;;5015642;28;20474;-78
2022/04/09 05:15:50;;;;;;;0.28;0.20;;;3.70;99.90;;;;;;5016897;28;20038;-77
2022/04/09 05:18:16;;;;;;;0.20;0.20;;;3.70;99.90;;;;;;5016879;28;20064;-78
2022/04/09 05:20:41;;;;;;;0.30;0.30;;;3.80;99.90;;;;;;5017270;28;20065;-78
2022/04/09 05:23:07;;;;;;;0.30;0.20;;;3.80;99.90;;;;;;5032585;28;20034;-78
2022/04/09 05:25:33;;;;;;;0.57;0.40;;;3.80;99.90;;;;;;5017928;28;20022;-78
2022/04/09 05:28:08;;;;;;;1.38;0.68;;;3.80;99.90;;;;;;5017571;28;20104;-78
2022/04/09 05:30:33;;;;;;;0.60;0.35;;;3.80;99.90;;;;;;5017115;28;20022;-78
2022/04/09 05:33:00;;;;;;;0.52;0.30;;;3.80;99.90;;;;;;5017867;28;20017;-78
2022/04/09 05:35:26;;;;;;;0.95;0.22;;;3.80;99.90;;;;;;5017906;28;20022;-78
2022/04/09 05:37:52;;;;;;;0.43;0.30;;;3.90;99.90;;;;;;5017779;28;20026;-78
2022/04/09 05:40:19;;;;;;;0.20;0.20;;;3.80;99.90;;;;;;5033631;28;20120;-78
2022/04/09 05:42:45;;;;;;;0.20;0.20;;;3.70;99.90;;;;;;5018280;28;20030;-78
2022/04/09 05:45:11;;;;;;;0.32;0.30;;;3.70;99.90;;;;;;5018555;28;20490;-78
2022/04/09 05:47:46;;;;;;;0.20;0.20;;;3.70;99.90;;;;;;5015930;28;20430;-78
2022/04/09 05:50:14;;;;;;;0.70;0.40;;;3.70;99.90;;;;;;5016803;28;20037;-78
2022/04/09 05:52:41;;;;;;;0.50;0.30;;;3.70;99.90;;;;;;5016215;28;20101;-82
2022/04/09 05:55:07;;;;;;;1.02;0.50;;;3.60;99.90;;;;;;5017345;28;20058;-79
2022/04/09 05:57:33;;;;;;;1.20;0.60;;;3.60;99.90;;;;;;5016411;28;20089;-78
2022/04/09 05:59:59;;;;;;;1.45;0.70;;;3.60;99.90;;;;;;5019282;28;20104;-78
2022/04/09 06:02:25;;;;;;;0.50;0.40;;;3.60;99.90;;;;;;5017673;28;21986;-78
2022/04/09 06:04:51;;;;;;;1.83;0.90;;;3.60;99.90;;;;;;5018994;28;20034;-78
2022/04/09 06:07:17;;;;;;;1.27;0.73;;;3.60;99.90;;;;;;5018537;28;20033;-78
2022/04/09 06:09:44;;;;;;;0.95;0.70;;;3.70;99.90;;;;;;5018119;28;20037;-78
2022/04/09 06:12:12;;;;;;;0.20;0.20;;;3.70;99.90;;;;;;5015699;28;20089;-79
2022/04/09 06:14:38;;;;;;;0.28;0.28;;;3.70;99.90;;;;;;5032973;28;20112;-78
2022/04/09 06:17:04;;;;;;;0.40;0.30;;;3.80;99.90;;;;;;5018294;28;20037;-78
2022/04/09 06:19:31;;;;;;;1.10;0.20;;;3.60;99.90;;;;;;5016936;28;20034;-78
2022/04/09 06:21:57;;;;;;;1.52;0.85;;;3.50;99.90;;;;;;5018047;28;20433;-78
2022/04/09 06:24:22;;;;;;;1.50;0.90;;;3.40;99.90;;;;;;5033417;28;20371;-78
2022/04/09 06:26:48;;;;;;;1.40;0.80;;;3.40;99.90;;;;;;5017527;28;20037;-78
2022/04/09 06:29:14;;;;;;;1.50;0.90;;;3.40;99.90;;;;;;5017866;28;20052;-78
2022/04/09 06:31:40;;;;;;;0.50;0.38;;;3.40;99.90;;;;;;5017973;28;20022;-78
2022/04/09 06:34:05;;;;;;;1.67;0.50;;;3.40;99.90;;;;;;5015886;28;20025;-78
2022/04/09 06:36:31;;;;;;;1.20;0.60;;;3.30;99.90;;;;;;5016761;28;20022;-78
2022/04/09 06:38:57;;;;;;;1.17;0.60;;;3.20;99.90;;;;;;5016980;28;20034;-79
2022/04/09 06:41:23;;;;;;;0.85;0.45;;;3.20;99.90;;;;;;5031898;28;20496;-79
2022/04/09 06:43:49;;;;;;;2.15;1.13;;;3.20;99.90;;;;;;5016651;28;20065;-79
2022/04/09 06:46:15;;;;;;;2.25;1.30;;;3.30;99.90;;;;;;5031749;28;20056;-79
2022/04/09 06:48:41;;;;;;;2.47;1.10;;;3.30;99.90;;;;;;5016096;28;20089;-78
2022/04/09 06:51:07;;;;;;;2.20;1.13;;;3.20;99.90;;;;;;5031681;28;20100;-79
2022/04/09 06:53:33;;;;;;;2.58;1.67;;;3.30;99.90;;;;;;5016084;28;20026;-79
2022/04/09 06:55:59;;;;;;;3.25;1.88;;;3.30;99.90;;;;;;5014513;28;20033;-79
2022/04/09 06:58:24;;;;;;;2.40;1.50;;;3.40;99.90;;;;;;5015881;28;20084;-79
2022/04/09 07:00:50;;;;;;;2.40;1.23;;;3.40;99.90;;;;;;5015485;28;20030;-79
2022/04/09 07:03:16;;;;;;;9.57;3.65;;;3.50;99.90;;;;;;5015857;28;20036;-79
2022/04/09 07:05:42;;;;;;;5.82;3.00;;;3.50;99.90;;;;;;5016650;28;20449;-79
2022/04/09 07:08:08;;;;;;;9.57;3.13;;;3.50;99.90;;;;;;5016207;28;20026;-79
2022/04/09 07:10:38;;;;;;;5.10;2.80;;;3.50;99.90;;;;;;5017058;28;20046;-79
2022/04/09 07:13:05;;;;;;;4.85;3.50;;;3.40;99.90;;;;;;5019019;28;20026;-79
2022/04/09 07:15:31;;;;;;;4.15;2.42;;;3.40;99.90;;;;;;5014642;28;20398;-79
2022/04/09 07:17:57;;;;;;;5.95;4.43;;;3.40;99.90;;;;;;5013748;28;20409;-79
2022/04/09 07:20:23;;;;;;;3.97;2.95;;;3.40;99.90;;;;;;5028781;28;20026;-79
2022/04/09 07:22:48;;;;;;;5.75;4.15;;;3.30;99.90;;;;;;5013764;28;20025;-78
2022/04/09 07:25:16;;;;;;;4.57;3.60;;;3.30;99.90;;;;;;5014001;28;20018;-78
2022/04/09 07:27:47;;;;;;;4.57;2.65;;;3.30;99.90;;;;;;5013505;28;20040;-79
2022/04/09 07:30:18;;;;;;;6.43;2.28;;;3.30;99.90;;;;;;5013502;28;20030;-78
2022/04/09 07:32:44;;;;;;;;;;;3.30;99.90;;;;;;5014685;28;20026;-79
2022/04/09 07:35:11;;;;;;;10.32;6.13;;;3.30;99.90;;;;;;5013498;28;20362;-79
2022/04/09 07:37:42;;;;;;;8.43;3.47;;;3.40;99.90;;;;;;5014277;28;20029;-79
2022/04/09 07:40:10;;;;;;;6.05;3.13;;;3.30;99.90;;;;;;5014279;28;20057;-79
2022/04/09 07:42:36;;;;;;;7.35;4.50;;;3.30;99.90;;;;;;5014291;28;20034;-79
2022/04/09 07:45:03;;;;;;;6.38;4.18;;;3.30;99.90;;;;;;5013902;28;20058;-78
2022/04/09 07:47:30;;;;;;;6.78;3.47;;;3.20;99.90;;;;;;5013681;28;20104;-79
2022/04/09 07:49:56;;;;;;;5.28;3.25;;;3.20;99.90;;;;;;5029518;28;20053;-78
2022/04/09 07:52:22;;;;;;;4.22;2.78;;;3.20;99.90;;;;;;5014428;28;20026;-78
2022/04/09 07:54:47;;;;;;;4.43;2.83;;;3.10;99.90;;;;;;5021937;28;20030;-78
2022/04/09 07:57:13;;;;;;;7.57;2.60;;;3.10;99.90;;;;;;5021895;28;20037;-79
2022/04/09 07:59:39;;;;;;;4.47;2.58;;;3.10;99.90;;;;;;5022738;28;20038;-79
2022/04/09 08:02:05;;;;;;;5.70;3.25;;;3.20;99.90;;;;;;5007027;28;20028;-79
2022/04/09 08:04:31;;;;;;;7.97;4.40;;;3.20;99.90;;;;;;5020089;28;20029;-78
2022/04/09 08:06:56;;;;;;;9.23;6.40;;;3.20;99.90;;;;;;5025920;28;20068;-78
2022/04/09 08:09:22;;;;;;;14.43;6.55;;;3.20;99.90;;;;;;5027005;28;20029;-79
2022/04/09 08:11:48;;;;;;;12.65;5.00;;;3.20;99.90;;;;;;5022946;28;20040;-79
2022/04/09 08:14:14;;;;;;;12.93;7.13;;;3.20;99.90;;;;;;5022650;28;20025;-78
2022/04/09 08:16:40;;;;;;;5.43;3.47;;;3.20;99.90;;;;;;5015826;28;20030;-78
2022/04/09 08:19:07;;;;;;;6.97;3.80;;;3.20;99.90;;;;;;5019369;28;20026;-79
2022/04/09 08:21:33;;;;;;;15.00;8.27;;;3.20;99.90;;;;;;5020236;28;20027;-79
2022/04/09 08:23:58;;;;;;;7.63;5.60;;;3.10;99.90;;;;;;5021367;28;20076;-79
2022/04/09 08:26:24;;;;;;;9.55;6.47;;;3.10;99.90;;;;;;5036698;28;20025;-79
2022/04/09 08:28:50;;;;;;;8.68;6.18;;;3.10;99.90;;;;;;5010091;28;20022;-79
2022/04/09 08:31:16;;;;;;;6.85;4.43;;;3.10;99.90;;;;;;5023074;28;20022;-79
2022/04/09 08:33:42;;;;;;;7.57;3.97;;;3.20;99.90;;;;;;5023527;28;20014;-79
2022/04/09 08:36:08;;;;;;;9.10;6.03;;;3.10;99.90;;;;;;5023603;28;20021;-79
2022/04/09 08:38:34;;;;;;;6.55;4.50;;;3.10;99.90;;;;;;5022671;28;20109;-79
2022/04/09 08:41:03;;;;;;;6.15;3.58;;;3.10;99.90;;;;;;5023209;28;20022;-79
2022/04/09 08:43:29;;;;;;;5.15;3.95;;;3.10;99.90;;;;;;5022804;28;20048;-79
2022/04/09 08:45:56;;;;;;;5.97;4.28;;;3.10;99.90;;;;;;5019886;28;20539;-79
2022/04/09 08:48:22;;;;;;;6.57;4.50;;;3.20;99.90;;;;;;5021116;28;20360;-79
2022/04/09 08:50:47;;;;;;;7.70;4.43;;;3.10;99.90;;;;;;5020219;28;20045;-79
2022/04/09 08:53:13;;;;;;;7.18;4.43;;;3.10;99.90;;;;;;5022701;28;20032;-79
2022/04/09 08:55:44;;;;;;;7.03;4.07;;;3.10;99.90;;;;;;5020977;28;20102;-79
2022/04/09 08:58:09;;;;;;;7.63;4.63;;;3.10;99.90;;;;;;5022296;28;20105;-79
2022/04/09 09:00:35;;;;;;;5.85;4.03;;;3.10;99.90;;;;;;5022660;28;20054;-79
2022/04/09 09:03:02;;;;;;;5.80;3.75;;;3.10;99.90;;;;;;5022880;28;20030;-78
2022/04/09 09:05:40;;;;;;;6.53;3.70;;;3.10;99.90;;;;;;5020370;28;20040;-79
2022/04/09 09:08:08;;;;;;;9.30;5.68;;;3.20;99.90;;;;;;5020141;28;20022;-79
2022/04/09 09:10:35;;;;;;;6.55;4.00;;;3.20;99.90;;;;;;5020154;28;20505;-79
2022/04/09 09:13:11;;;;;;;6.82;3.65;;;3.20;99.90;;;;;;5021712;28;20033;-78
2022/04/09 09:15:52;;;;;;;6.40;3.47;;;3.30;99.90;;;;;;5023403;28;20053;-78
2022/04/09 09:18:23;;;;;;;6.75;4.32;;;3.30;99.90;;;;;;5021741;28;20105;-78
2022/04/09 09:20:54;;;;;;;6.53;4.63;;;3.40;99.90;;;;;;5022022;28;20026;-78
2022/04/09 09:23:27;;;;;;;6.57;4.40;;;3.40;99.90;;;;;;5022021;28;20022;-78
2022/04/09 09:25:55;;;;;;;7.13;4.60;;;3.50;99.90;;;;;;5022544;28;20061;-78
2022/04/09 09:28:39;;;;;;;8.15;4.25;;;3.50;99.90;;;;;;5022218;28;20056;-78
2022/04/09 09:31:05;;;;;;;5.43;3.80;;;3.50;99.90;;;;;;5022228;28;20045;-78
2022/04/09 09:33:31;;;;;;;6.20;4.20;;;3.60;99.90;;;;;;5021860;28;20030;-77
2022/04/09 09:36:00;;;;;;;8.07;4.15;;;3.60;99.90;;;;;;5022371;28;20056;-78
2022/04/09 09:38:28;;;;;;;7.72;4.40;;;3.50;99.90;;;;;;5021862;28;20064;-78
2022/04/09 09:40:58;;;;;;;6.13;3.75;;;3.50;99.90;;;;;;5020153;28;20033;-78
2022/04/09 09:43:26;;;;;;;6.80;3.57;;;3.50;99.90;;;;;;5021245;28;20053;-78
2022/04/09 09:45:55;;;;;;;5.65;3.72;;;3.60;99.90;;;;;;5017928;28;20142;-77
2022/04/09 09:48:22;;;;;;;7.38;4.30;;;3.70;99.90;;;;;;5018385;28;20082;-78
2022/04/09 09:50:48;;;;;;;5.28;3.58;;;3.80;99.90;;;;;;5019800;28;20073;-78
2022/04/09 09:53:14;;;;;;;5.93;3.90;;;3.80;99.90;;;;;;5019726;28;20030;-77
2022/04/09 09:55:44;;;;;;;6.38;3.55;;;3.80;99.90;;;;;;5020672;28;20053;-78
2022/04/09 09:58:21;;;;;;;5.25;3.47;;;3.90;99.90;;;;;;5018264;28;20018;-77
2022/04/09 10:00:47;;;;;;;4.28;2.75;;;3.90;99.90;;;;;;5017970;28;20029;-77
2022/04/09 10:03:14;;;;;;;5.15;3.90;;;3.90;99.90;;;;;;5018260;28;20474;-77
2022/04/09 10:05:40;;;;;;;5.22;3.53;;;3.90;99.90;;;;;;5018260;28;20022;-78
2022/04/09 10:08:07;;;;;;;8.30;5.22;;;3.90;99.90;;;;;;5019111;28;20025;-77
2022/04/09 10:10:37;;;;;;;5.90;4.18;;;3.90;99.90;;;;;;5019411;28;20036;-78
2022/04/09 10:13:04;;;;;;;5.65;3.60;;;3.80;99.90;;;;;;5020656;28;20041;-78
2022/04/09 10:15:31;;;;;;;13.80;9.07;;;3.80;99.90;;;;;;5021319;28;20022;-78
2022/04/09 10:18:00;;;;;;;7.18;5.32;;;3.80;99.90;;;;;;5019821;28;20447;-78
2022/04/09 10:20:29;;;;;;;5.45;3.65;;;3.80;99.90;;;;;;5018911;28;20030;-78
2022/04/09 10:23:02;;;;;;;6.20;5.38;;;3.90;99.90;;;;;;5020038;28;20474;-78
2022/04/09 10:25:30;;;;;;;8.57;4.82;;;3.90;99.90;;;;;;5019338;28;20056;-78
2022/04/09 10:28:03;;;;;;;13.13;7.25;;;3.80;99.90;;;;;;5020663;28;20026;-78
2022/04/09 10:30:39;;;;;;;89.97;37.25;;;3.80;99.90;;;;;;5020054;28;20026;-78
2022/04/09 10:33:23;;;;;;;23.45;14.40;;;3.70;99.90;;;;;;5019888;28;20038;-78
2022/04/09 10:35:49;;;;;;;4.60;3.65;;;3.60;99.90;;;;;;5021260;28;20026;-78
2022/04/09 10:38:16;;;;;;;4.18;2.10;;;3.60;99.90;;;;;;5020262;28;20438;-78
2022/04/09 10:40:56;;;;;;;3.53;2.22;;;3.60;99.90;;;;;;5017908;28;20018;-77
2022/04/09 10:43:22;;;;;;;4.72;2.08;;;3.60;99.90;;;;;;5016956;28;20028;-77
2022/04/09 10:46:16;;;;;;;4.75;2.30;;;3.50;99.90;;;;;;5016857;28;20112;-78
2022/04/09 10:48:44;;;;;;;3.85;2.45;;;3.50;99.90;;;;;;4995184;28;20022;-77
2022/04/09 10:51:19;;;;;;;5.88;3.58;;;3.50;99.90;;;;;;4994101;28;20085;-77
2022/04/09 10:53:50;;;;;;;4.47;2.70;;;3.60;99.90;;;;;;5012996;28;20022;-77
2022/04/09 10:56:20;;;;;;;4.55;2.75;;;3.80;99.90;;;;;;5015124;28;20453;-77
2022/04/09 10:59:06;;;;;;;3.00;2.00;;;4.00;99.90;;;;;;5013592;28;20034;-77
2022/04/09 11:01:46;;;;;;;4.28;2.42;;;4.20;99.90;;;;;;5013893;28;20030;-78
2022/04/09 11:04:31;;;;;;;3.45;2.40;;;4.40;99.90;;;;;;5015854;28;20045;-77
2022/04/09 11:07:00;;;;;;;3.35;1.85;;;4.50;99.90;;;;;;5014157;28;20471;-77
2022/04/09 11:09:47;;;;;;;6.28;2.00;;;4.70;99.90;;;;;;5014786;28;20118;-77
2022/04/09 11:12:14;;;;;;;3.78;1.98;;;4.90;99.90;;;;;;4997626;28;20030;-77
2022/04/09 11:14:50;;;;;;;3.95;2.25;;;5.10;99.90;;;;;;5016031;28;20022;-77
2022/04/09 11:17:18;;;;;;;3.97;2.42;;;5.10;99.90;;;;;;5010825;28;20044;-77
2022/04/09 11:19:44;;;;;;;3.85;2.60;;;5.10;99.90;;;;;;5014549;28;20033;-77
2022/04/09 11:22:10;;;;;;;5.75;2.92;;;5.10;99.90;;;;;;5014838;28;20029;-77
2022/04/09 11:24:39;;;;;;;6.93;3.28;;;5.00;99.90;;;;;;5014470;28;20451;-77
2022/04/09 11:27:06;;;;;;;4.85;2.90;;;4.90;99.90;;;;;;5014793;28;20036;-77
2022/04/09 11:29:33;;;;;;;5.80;3.20;;;4.80;99.90;;;;;;5014124;28;20026;-77
2022/04/09 11:31:59;;;;;;;5.95;3.28;;;4.70;99.90;;;;;;5014209;28;20026;-77
2022/04/09 11:34:25;;;;;;;4.45;2.90;;;4.70;99.90;;;;;;5014570;28;20029;-77
2022/04/09 11:36:52;;;;;;;5.50;3.42;;;4.60;99.90;;;;;;5014088;28;20088;-77
2022/04/09 11:39:18;;;;;;;17.77;7.13;;;4.60;99.90;;;;;;5013843;28;20029;-77
2022/04/09 11:41:47;;;;;;;16.92;7.38;;;4.60;99.90;;;;;;5015128;28;20060;-77
2022/04/09 11:44:27;;;;;;;9.00;4.20;;;4.50;99.90;;;;;;5018330;28;20022;-77
2022/04/09 11:46:53;;;;;;;;;;;4.50;99.90;;;;;;5018141;28;20047;-77
2022/04/09 11:49:19;;;;;;;;;;;4.50;99.90;;;;;;5017349;28;20056;-77
2022/04/09 11:51:54;;;;;;;;;;;4.40;99.90;;;;;;5017841;28;20023;-77
2022/04/09 11:54:20;;;;;;;;;;;4.40;99.90;;;;;;5018486;28;20073;-77
2022/04/09 11:56:45;;;;;;;;;;;4.50;99.90;;;;;;5018987;28;20036;-77
2022/04/09 11:59:15;;;;;;;;;;;4.60;99.90;;;;;;5019002;28;19936;-77
2022/04/09 12:01:47;;;;;;;;;;;4.80;99.90;;;;;;5015740;28;19916;-77
2022/04/09 12:04:16;;;;;;;;;;;4.90;99.90;;;;;;5017687;28;19928;-77
2022/04/09 12:06:41;;;;;;;;;;;4.90;99.90;;;;;;5017483;28;20137;-77
2022/04/09 12:09:07;;;;;;;;;;;4.90;99.90;;;;;;5016564;28;19913;-77
2022/04/09 12:11:33;;;;;;;;;;;5.00;99.90;;;;;;5016964;28;19913;-77
2022/04/09 12:14:08;;;;;;;;;;;5.10;99.90;;;;;;5015251;28;24070;-77
2022/04/09 12:16:40;;;;;;;;;;;5.20;99.90;;;;;;5016962;28;19905;-77
2022/04/09 12:19:06;;;;;;;;;;;5.40;99.90;;;;;;5007571;28;20281;-77
2022/04/09 12:21:32;;;;;;;;;;;5.60;99.90;;;;;;5014193;28;19906;-77
2022/04/09 12:24:01;;;;;;;;;;;5.70;99.90;;;;;;5013575;28;19906;-77
2022/04/09 12:26:28;;;;;;;;;;;5.70;99.90;;;;;;5013418;28;20298;-77
2022/04/09 12:29:13;;;;;;;;;;;5.70;99.90;;;;;;5014754;28;24075;-77
2022/04/09 12:31:42;;;;;;;;;;;5.60;99.90;;;;;;5012984;28;19910;-77
2022/04/09 12:34:09;;;;;;;;;;;5.50;99.90;;;;;;5015106;28;19914;-78
2022/04/09 12:36:38;;;;;;;;;;;5.60;99.90;;;;;;5015633;28;19961;-77
2022/04/09 12:39:21;;;;;;;;;;;5.60;99.90;;;;;;5016332;28;19905;-77
2022/04/09 12:41:48;;;;;;;;;;;5.70;99.90;;;;;;5016294;28;20345;-77
2022/04/09 12:44:28;;;;;;;;;;;5.80;99.90;;;;;;5016933;28;19992;-77
2022/04/09 12:46:54;;;;;;;;;;;5.90;99.90;;;;;;5015401;28;20004;-77
2022/04/09 12:49:27;;;;;;;;;;;6.00;99.90;;;;;;5017326;28;19964;-77
2022/04/09 12:51:52;;;;;;;;;;;6.10;99.90;;;;;;5032917;28;19905;-77
2022/04/09 12:54:18;;;;;;;;;;;6.10;99.90;;;;;;5017122;28;19905;-77
2022/04/09 12:56:44;;;;;;;;;;;6.10;99.90;;;;;;5018954;28;19913;-77
2022/04/09 12:59:09;;;;;;;;;;;6.20;99.90;;;;;;5017896;28;19909;-77
2022/04/09 13:01:35;;;;;;;;;;;6.20;99.90;;;;;;5017481;28;19905;-77
2022/04/09 13:04:01;;;;;;;;;;;5.90;99.90;;;;;;5016818;28;19924;-76
2022/04/09 13:06:28;;;;;;;;;;;5.40;99.90;;;;;;5016696;28;19909;-76